sensor_id;sensor_type;location;lat;lon;timestamp;P1;durP1;ratioP1;P2;durP2;ratioP2
22289;SDS011;11313;50.116;8.424;2023-05-02T00:00:12;143.57;;;134.30;;
22289;SDS011;11313;50.116;8.424;2023-05-02T00:02:38;150.82;;;140.95;;
22289;SDS011;11313;50.116;8.424;2023-05-02T00:05:04;250.82;;;234.82;;
22289;SDS011;11313;50.116;8.424;2023-05-02T00:07:30;483.25;;;451.83;;
22289;SDS011;11313;50.116;8.424;2023-05-02T00:09:57;287.13;;;268.92;;
22289;SDS011;11313;50.116;8.424;2023-05-02T00:12:22;536.88;;;501.90;;
22289;SDS011;11313;50.116;8.424;2023-05-02T00:14:48;468.17;;;438.00;;
22289;SDS011;11313;50.116;8.424;2023-05-02T00:17:17;597.70;;;557.35;;
22289;SDS011;11313;50.116;8.424;2023-05-02T00:19:43;507.43;;;474.13;;
22289;SDS011;11313;50.116;8.424;2023-05-02T00:22:09;567.35;;;529.25;;
22289;SDS011;11313;50.116;8.424;2023-05-02T00:24:34;607.63;;;566.22;;
22289;SDS011;11313;50.116;8.424;2023-05-02T00:27:00;659.58;;;613.60;;
22289;SDS011;11313;50.116;8.424;2023-05-02T00:29:26;590.17;;;550.53;;
22289;SDS011;11313;50.116;8.424;2023-05-02T00:31:51;504.65;;;472.33;;
22289;SDS011;11313;50.116;8.424;2023-05-02T00:34:17;587.60;;;548.08;;
22289;SDS011;11313;50.116;8.424;2023-05-02T00:36:42;489.52;;;458.08;;
22289;SDS011;11313;50.116;8.424;2023-05-02T00:39:08;348.67;;;327.40;;
22289;SDS011;11313;50.116;8.424;2023-05-02T00:41:33;219.48;;;205.55;;
22289;SDS011;11313;50.116;8.424;2023-05-02T00:43:59;252.77;;;237.30;;
22289;SDS011;11313;50.116;8.424;2023-05-02T00:46:24;189.88;;;177.65;;
22289;SDS011;11313;50.116;8.424;2023-05-02T00:48:51;248.05;;;232.70;;
22289;SDS011;11313;50.116;8.424;2023-05-02T00:51:17;448.52;;;420.10;;
22289;SDS011;11313;50.116;8.424;2023-05-02T00:53:43;278.98;;;262.02;;
22289;SDS011;11313;50.116;8.424;2023-05-02T00:56:09;296.05;;;277.95;;
22289;SDS011;11313;50.116;8.424;2023-05-02T00:58:35;472.15;;;441.98;;
22289;SDS011;11313;50.116;8.424;2023-05-02T01:03:52;260.20;;;244.05;;
22289;SDS011;11313;50.116;8.424;2023-05-02T01:06:33;524.97;;;491.23;;
22289;SDS011;11313;50.116;8.424;2023-05-02T01:14:56;404.73;;;378.45;;
22289;SDS011;11313;50.116;8.424;2023-05-02T01:17:26;643.92;;;599.75;;
22289;SDS011;11313;50.116;8.424;2023-05-02T01:19:57;620.55;;;578.15;;
22289;SDS011;11313;50.116;8.424;2023-05-02T01:22:26;652.93;;;606.90;;
22289;SDS011;11313;50.116;8.424;2023-05-02T01:27:50;682.88;;;634.80;;
22289;SDS011;11313;50.116;8.424;2023-05-02T01:30:40;685.75;;;636.85;;
22289;SDS011;11313;50.116;8.424;2023-05-02T01:33:08;102.30;;;95.85;;
22289;SDS011;11313;50.116;8.424;2023-05-02T01:35:37;430.47;;;401.63;;
22289;SDS011;11313;50.116;8.424;2023-05-02T01:38:04;403.60;;;378.38;;
22289;SDS011;11313;50.116;8.424;2023-05-02T01:40:31;577.22;;;538.65;;
22289;SDS011;11313;50.116;8.424;2023-05-02T01:42:58;632.45;;;588.72;;
22289;SDS011;11313;50.116;8.424;2023-05-02T01:45:28;657.30;;;612.35;;
22289;SDS011;11313;50.116;8.424;2023-05-02T01:47:55;565.92;;;529.35;;
22289;SDS011;11313;50.116;8.424;2023-05-02T01:50:23;574.30;;;536.38;;
22289;SDS011;11313;50.116;8.424;2023-05-02T01:52:50;627.20;;;584.25;;
22289;SDS011;11313;50.116;8.424;2023-05-02T01:55:17;387.48;;;363.88;;
22289;SDS011;11313;50.116;8.424;2023-05-02T01:57:45;517.72;;;484.52;;
22289;SDS011;11313;50.116;8.424;2023-05-02T02:00:12;610.80;;;569.72;;
22289;SDS011;11313;50.116;8.424;2023-05-02T02:02:40;455.95;;;427.33;;
22289;SDS011;11313;50.116;8.424;2023-05-02T02:05:07;294.98;;;276.92;;
22289;SDS011;11313;50.116;8.424;2023-05-02T02:07:34;323.88;;;304.65;;
22289;SDS011;11313;50.116;8.424;2023-05-02T02:10:00;528.28;;;494.45;;
22289;SDS011;11313;50.116;8.424;2023-05-02T02:12:26;490.33;;;459.52;;
22289;SDS011;11313;50.116;8.424;2023-05-02T02:17:54;591.67;;;552.47;;
22289;SDS011;11313;50.116;8.424;2023-05-02T02:22:50;565.47;;;528.70;;
22289;SDS011;11313;50.116;8.424;2023-05-02T02:25:17;461.00;;;431.88;;
22289;SDS011;11313;50.116;8.424;2023-05-02T02:27:43;563.67;;;526.55;;
22289;SDS011;11313;50.116;8.424;2023-05-02T02:30:09;597.63;;;558.28;;
22289;SDS011;11313;50.116;8.424;2023-05-02T02:32:35;513.85;;;481.08;;
22289;SDS011;11313;50.116;8.424;2023-05-02T02:35:01;551.80;;;515.85;;
22289;SDS011;11313;50.116;8.424;2023-05-02T02:37:30;379.55;;;355.65;;
22289;SDS011;11313;50.116;8.424;2023-05-02T02:42:43;397.52;;;372.20;;
22289;SDS011;11313;50.116;8.424;2023-05-02T02:45:34;449.35;;;421.70;;
22289;SDS011;11313;50.116;8.424;2023-05-02T02:50:52;440.83;;;413.30;;
22289;SDS011;11313;50.116;8.424;2023-05-02T02:53:32;427.85;;;401.45;;
22289;SDS011;11313;50.116;8.424;2023-05-02T02:56:12;469.23;;;439.50;;
22289;SDS011;11313;50.116;8.424;2023-05-02T02:58:47;618.60;;;576.58;;
22289;SDS011;11313;50.116;8.424;2023-05-02T03:01:25;507.65;;;475.02;;
22289;SDS011;11313;50.116;8.424;2023-05-02T03:03:54;543.38;;;507.75;;
22289;SDS011;11313;50.116;8.424;2023-05-02T03:06:21;557.13;;;520.65;;
22289;SDS011;11313;50.116;8.424;2023-05-02T03:08:48;450.05;;;421.88;;
22289;SDS011;11313;50.116;8.424;2023-05-02T03:11:14;372.95;;;349.83;;
22289;SDS011;11313;50.116;8.424;2023-05-02T03:13:40;367.67;;;345.17;;
22289;SDS011;11313;50.116;8.424;2023-05-02T03:18:58;85.10;;;80.30;;
22289;SDS011;11313;50.116;8.424;2023-05-02T03:21:24;89.78;;;84.70;;
22289;SDS011;11313;50.116;8.424;2023-05-02T03:23:49;99.53;;;93.82;;
22289;SDS011;11313;50.116;8.424;2023-05-02T03:26:15;92.90;;;87.47;;
22289;SDS011;11313;50.116;8.424;2023-05-02T03:28:41;117.85;;;111.05;;
22289;SDS011;11313;50.116;8.424;2023-05-02T03:31:06;123.18;;;115.88;;
22289;SDS011;11313;50.116;8.424;2023-05-02T03:33:32;124.25;;;117.10;;
22289;SDS011;11313;50.116;8.424;2023-05-02T03:35:57;287.15;;;269.90;;
22289;SDS011;11313;50.116;8.424;2023-05-02T03:38:23;101.03;;;95.22;;
22289;SDS011;11313;50.116;8.424;2023-05-02T03:40:48;167.75;;;157.82;;
22289;SDS011;11313;50.116;8.424;2023-05-02T03:43:14;139.05;;;131.00;;
22289;SDS011;11313;50.116;8.424;2023-05-02T03:45:39;145.13;;;136.50;;
22289;SDS011;11313;50.116;8.424;2023-05-02T03:48:05;227.70;;;214.00;;
22289;SDS011;11313;50.116;8.424;2023-05-02T03:50:30;226.40;;;212.60;;
22289;SDS011;11313;50.116;8.424;2023-05-02T03:52:56;496.35;;;463.77;;
22289;SDS011;11313;50.116;8.424;2023-05-02T03:55:22;466.42;;;435.95;;
22289;SDS011;11313;50.116;8.424;2023-05-02T03:57:47;349.20;;;327.58;;
22289;SDS011;11313;50.116;8.424;2023-05-02T04:00:13;256.75;;;241.80;;
22289;SDS011;11313;50.116;8.424;2023-05-02T04:02:38;254.73;;;239.60;;
22289;SDS011;11313;50.116;8.424;2023-05-02T04:05:04;242.10;;;227.65;;
22289;SDS011;11313;50.116;8.424;2023-05-02T04:07:30;363.10;;;339.60;;
22289;SDS011;11313;50.116;8.424;2023-05-02T04:09:55;448.88;;;420.52;;
22289;SDS011;11313;50.116;8.424;2023-05-02T04:12:21;377.63;;;354.05;;
22289;SDS011;11313;50.116;8.424;2023-05-02T04:14:46;162.55;;;152.82;;
22289;SDS011;11313;50.116;8.424;2023-05-02T04:17:12;135.35;;;127.53;;
22289;SDS011;11313;50.116;8.424;2023-05-02T04:19:39;120.50;;;113.47;;
22289;SDS011;11313;50.116;8.424;2023-05-02T04:22:05;203.30;;;191.18;;
22289;SDS011;11313;50.116;8.424;2023-05-02T04:24:30;228.80;;;215.25;;
22289;SDS011;11313;50.116;8.424;2023-05-02T04:26:56;187.07;;;175.60;;
22289;SDS011;11313;50.116;8.424;2023-05-02T04:29:21;142.57;;;134.30;;
22289;SDS011;11313;50.116;8.424;2023-05-02T04:31:47;170.75;;;160.52;;
22289;SDS011;11313;50.116;8.424;2023-05-02T04:34:13;464.67;;;434.33;;
22289;SDS011;11313;50.116;8.424;2023-05-02T04:36:38;559.00;;;522.20;;
22289;SDS011;11313;50.116;8.424;2023-05-02T04:39:09;497.98;;;465.85;;
22289;SDS011;11313;50.116;8.424;2023-05-02T04:41:34;248.35;;;233.40;;
22289;SDS011;11313;50.116;8.424;2023-05-02T04:44:00;338.50;;;317.27;;
22289;SDS011;11313;50.116;8.424;2023-05-02T04:46:25;312.08;;;293.20;;
22289;SDS011;11313;50.116;8.424;2023-05-02T04:48:51;240.63;;;226.13;;
22289;SDS011;11313;50.116;8.424;2023-05-02T04:51:17;380.38;;;356.52;;
22289;SDS011;11313;50.116;8.424;2023-05-02T04:53:42;452.10;;;423.02;;
22289;SDS011;11313;50.116;8.424;2023-05-02T04:56:08;497.20;;;465.30;;
22289;SDS011;11313;50.116;8.424;2023-05-02T04:58:33;526.90;;;492.35;;
22289;SDS011;11313;50.116;8.424;2023-05-02T05:00:59;562.83;;;525.42;;
22289;SDS011;11313;50.116;8.424;2023-05-02T05:03:25;481.10;;;449.90;;
22289;SDS011;11313;50.116;8.424;2023-05-02T05:05:53;356.20;;;333.98;;
22289;SDS011;11313;50.116;8.424;2023-05-02T05:08:19;522.15;;;488.33;;
22289;SDS011;11313;50.116;8.424;2023-05-02T05:10:44;249.82;;;234.43;;
22289;SDS011;11313;50.116;8.424;2023-05-02T05:13:10;230.23;;;216.02;;
22289;SDS011;11313;50.116;8.424;2023-05-02T05:15:37;232.85;;;218.93;;
22289;SDS011;11313;50.116;8.424;2023-05-02T05:18:04;453.77;;;424.98;;
22289;SDS011;11313;50.116;8.424;2023-05-02T05:20:29;444.70;;;415.73;;
22289;SDS011;11313;50.116;8.424;2023-05-02T05:22:55;558.60;;;521.58;;
22289;SDS011;11313;50.116;8.424;2023-05-02T05:25:21;508.17;;;474.70;;
22289;SDS011;11313;50.116;8.424;2023-05-02T05:27:46;443.25;;;414.38;;
22289;SDS011;11313;50.116;8.424;2023-05-02T05:30:12;540.33;;;505.30;;
22289;SDS011;11313;50.116;8.424;2023-05-02T05:32:38;554.28;;;517.08;;
22289;SDS011;11313;50.116;8.424;2023-05-02T05:35:04;598.65;;;558.20;;
22289;SDS011;11313;50.116;8.424;2023-05-02T05:37:30;509.63;;;476.33;;
22289;SDS011;11313;50.116;8.424;2023-05-02T05:39:55;437.85;;;409.88;;
22289;SDS011;11313;50.116;8.424;2023-05-02T05:42:21;371.50;;;348.20;;
22289;SDS011;11313;50.116;8.424;2023-05-02T05:44:46;515.10;;;481.17;;
22289;SDS011;11313;50.116;8.424;2023-05-02T05:47:12;457.13;;;427.75;;
22289;SDS011;11313;50.116;8.424;2023-05-02T05:49:43;404.08;;;378.50;;
22289;SDS011;11313;50.116;8.424;2023-05-02T05:52:08;504.65;;;470.98;;
22289;SDS011;11313;50.116;8.424;2023-05-02T05:54:34;382.80;;;358.30;;
22289;SDS011;11313;50.116;8.424;2023-05-02T05:57:00;345.30;;;322.90;;
22289;SDS011;11313;50.116;8.424;2023-05-02T05:59:25;252.85;;;236.40;;
22289;SDS011;11313;50.116;8.424;2023-05-02T06:01:51;379.70;;;354.35;;
22289;SDS011;11313;50.116;8.424;2023-05-02T06:04:18;292.63;;;272.98;;
22289;SDS011;11313;50.116;8.424;2023-05-02T06:06:43;467.50;;;435.88;;
22289;SDS011;11313;50.116;8.424;2023-05-02T06:09:08;387.15;;;360.83;;
22289;SDS011;11313;50.116;8.424;2023-05-02T06:11:35;543.55;;;507.17;;
22289;SDS011;11313;50.116;8.424;2023-05-02T06:14:01;542.42;;;505.70;;
22289;SDS011;11313;50.116;8.424;2023-05-02T06:16:27;532.88;;;496.58;;
22289;SDS011;11313;50.116;8.424;2023-05-02T06:18:52;501.60;;;467.00;;
22289;SDS011;11313;50.116;8.424;2023-05-02T06:21:18;510.05;;;474.98;;
22289;SDS011;11313;50.116;8.424;2023-05-02T06:23:44;557.25;;;519.38;;
22289;SDS011;11313;50.116;8.424;2023-05-02T06:26:10;568.83;;;529.50;;
22289;SDS011;11313;50.116;8.424;2023-05-02T06:28:36;498.25;;;464.50;;
22289;SDS011;11313;50.116;8.424;2023-05-02T06:31:02;565.45;;;527.40;;
22289;SDS011;11313;50.116;8.424;2023-05-02T06:33:29;307.85;;;286.80;;
22289;SDS011;11313;50.116;8.424;2023-05-02T06:35:56;343.50;;;320.30;;
22289;SDS011;11313;50.116;8.424;2023-05-02T06:38:21;388.02;;;361.83;;
22289;SDS011;11313;50.116;8.424;2023-05-02T06:40:48;275.55;;;257.02;;
22289;SDS011;11313;50.116;8.424;2023-05-02T06:43:14;393.10;;;365.88;;
22289;SDS011;11313;50.116;8.424;2023-05-02T06:45:40;382.38;;;355.75;;
22289;SDS011;11313;50.116;8.424;2023-05-02T06:48:06;315.42;;;292.00;;
22289;SDS011;11313;50.116;8.424;2023-05-02T06:50:32;282.25;;;261.08;;
22289;SDS011;11313;50.116;8.424;2023-05-02T06:52:58;540.95;;;501.77;;
22289;SDS011;11313;50.116;8.424;2023-05-02T06:55:23;528.75;;;490.45;;
22289;SDS011;11313;50.116;8.424;2023-05-02T06:57:49;515.58;;;478.85;;
22289;SDS011;11313;50.116;8.424;2023-05-02T07:00:15;522.92;;;485.13;;
22289;SDS011;11313;50.116;8.424;2023-05-02T07:02:42;189.65;;;172.77;;
22289;SDS011;11313;50.116;8.424;2023-05-02T07:05:10;174.60;;;160.32;;
22289;SDS011;11313;50.116;8.424;2023-05-02T07:07:36;381.88;;;354.75;;
22289;SDS011;11313;50.116;8.424;2023-05-02T07:10:02;462.67;;;431.55;;
22289;SDS011;11313;50.116;8.424;2023-05-02T07:12:27;510.20;;;476.00;;
22289;SDS011;11313;50.116;8.424;2023-05-02T07:14:53;378.63;;;353.27;;
22289;SDS011;11313;50.116;8.424;2023-05-02T07:17:18;471.52;;;440.02;;
22289;SDS011;11313;50.116;8.424;2023-05-02T07:19:44;427.20;;;398.40;;
22289;SDS011;11313;50.116;8.424;2023-05-02T07:22:10;158.60;;;147.45;;
22289;SDS011;11313;50.116;8.424;2023-05-02T07:24:39;289.50;;;270.15;;
22289;SDS011;11313;50.116;8.424;2023-05-02T07:27:05;426.70;;;398.07;;
22289;SDS011;11313;50.116;8.424;2023-05-02T07:29:32;402.02;;;376.00;;
22289;SDS011;11313;50.116;8.424;2023-05-02T07:31:57;307.95;;;287.42;;
22289;SDS011;11313;50.116;8.424;2023-05-02T07:34:23;177.50;;;164.93;;
22289;SDS011;11313;50.116;8.424;2023-05-02T07:36:48;441.63;;;413.15;;
22289;SDS011;11313;50.116;8.424;2023-05-02T07:39:14;534.72;;;499.38;;
22289;SDS011;11313;50.116;8.424;2023-05-02T07:41:39;561.97;;;523.85;;
22289;SDS011;11313;50.116;8.424;2023-05-02T07:44:05;494.52;;;461.95;;
22289;SDS011;11313;50.116;8.424;2023-05-02T07:46:31;416.90;;;389.73;;
22289;SDS011;11313;50.116;8.424;2023-05-02T07:48:56;335.35;;;313.65;;
22289;SDS011;11313;50.116;8.424;2023-05-02T07:51:21;365.90;;;341.70;;
22289;SDS011;11313;50.116;8.424;2023-05-02T07:53:50;262.33;;;245.18;;
22289;SDS011;11313;50.116;8.424;2023-05-02T07:56:18;248.80;;;232.40;;
22289;SDS011;11313;50.116;8.424;2023-05-02T07:58:43;270.50;;;252.95;;
22289;SDS011;11313;50.116;8.424;2023-05-02T08:01:09;346.10;;;323.58;;
22289;SDS011;11313;50.116;8.424;2023-05-02T08:03:35;127.13;;;118.22;;
22289;SDS011;11313;50.116;8.424;2023-05-02T08:06:01;326.77;;;305.23;;
22289;SDS011;11313;50.116;8.424;2023-05-02T08:08:26;220.15;;;205.65;;
22289;SDS011;11313;50.116;8.424;2023-05-02T08:10:52;103.68;;;96.32;;
22289;SDS011;11313;50.116;8.424;2023-05-02T08:13:17;103.40;;;96.10;;
22289;SDS011;11313;50.116;8.424;2023-05-02T08:15:43;130.73;;;121.93;;
22289;SDS011;11313;50.116;8.424;2023-05-02T08:18:08;126.15;;;117.47;;
22289;SDS011;11313;50.116;8.424;2023-05-02T08:20:34;73.82;;;67.95;;
22289;SDS011;11313;50.116;8.424;2023-05-02T08:23:00;89.85;;;83.13;;
22289;SDS011;11313;50.116;8.424;2023-05-02T08:25:25;84.78;;;78.28;;
22289;SDS011;11313;50.116;8.424;2023-05-02T08:27:51;157.18;;;146.77;;
22289;SDS011;11313;50.116;8.424;2023-05-02T08:30:16;175.40;;;163.02;;
22289;SDS011;11313;50.116;8.424;2023-05-02T08:32:42;106.43;;;98.88;;
22289;SDS011;11313;50.116;8.424;2023-05-02T08:35:07;112.40;;;104.63;;
22289;SDS011;11313;50.116;8.424;2023-05-02T08:37:33;110.65;;;103.05;;
22289;SDS011;11313;50.116;8.424;2023-05-02T08:40:00;214.75;;;200.98;;
22289;SDS011;11313;50.116;8.424;2023-05-02T08:42:26;173.73;;;161.80;;
22289;SDS011;11313;50.116;8.424;2023-05-02T08:44:56;215.75;;;201.80;;
22289;SDS011;11313;50.116;8.424;2023-05-02T08:47:22;241.40;;;226.07;;
22289;SDS011;11313;50.116;8.424;2023-05-02T08:49:49;242.20;;;226.68;;
22289;SDS011;11313;50.116;8.424;2023-05-02T08:52:17;181.95;;;170.07;;
22289;SDS011;11313;50.116;8.424;2023-05-02T08:54:44;200.38;;;187.63;;
22289;SDS011;11313;50.116;8.424;2023-05-02T08:57:10;207.57;;;194.38;;
22289;SDS011;11313;50.116;8.424;2023-05-02T08:59:35;230.30;;;216.07;;
22289;SDS011;11313;50.116;8.424;2023-05-02T09:02:09;174.98;;;163.95;;
22289;SDS011;11313;50.116;8.424;2023-05-02T09:04:47;78.50;;;73.07;;
22289;SDS011;11313;50.116;8.424;2023-05-02T09:07:18;331.58;;;311.23;;
22289;SDS011;11313;50.116;8.424;2023-05-02T09:09:43;205.05;;;192.57;;
22289;SDS011;11313;50.116;8.424;2023-05-02T09:12:09;113.53;;;106.13;;
22289;SDS011;11313;50.116;8.424;2023-05-02T09:14:35;81.68;;;76.60;;
22289;SDS011;11313;50.116;8.424;2023-05-02T09:17:00;151.48;;;142.15;;
22289;SDS011;11313;50.116;8.424;2023-05-02T09:19:26;171.27;;;160.88;;
22289;SDS011;11313;50.116;8.424;2023-05-02T09:21:52;103.13;;;96.63;;
22289;SDS011;11313;50.116;8.424;2023-05-02T09:24:24;83.68;;;78.30;;
22289;SDS011;11313;50.116;8.424;2023-05-02T09:26:57;144.82;;;135.85;;
22289;SDS011;11313;50.116;8.424;2023-05-02T09:29:27;111.05;;;104.25;;
22289;SDS011;11313;50.116;8.424;2023-05-02T09:31:54;225.57;;;212.15;;
22289;SDS011;11313;50.116;8.424;2023-05-02T09:34:20;242.65;;;227.85;;
22289;SDS011;11313;50.116;8.424;2023-05-02T09:36:46;158.52;;;148.98;;
22289;SDS011;11313;50.116;8.424;2023-05-02T09:39:20;111.45;;;104.22;;
22289;SDS011;11313;50.116;8.424;2023-05-02T09:41:47;129.50;;;121.68;;
22289;SDS011;11313;50.116;8.424;2023-05-02T09:44:14;83.20;;;78.05;;
22289;SDS011;11313;50.116;8.424;2023-05-02T09:46:45;103.50;;;97.10;;
22289;SDS011;11313;50.116;8.424;2023-05-02T09:49:12;149.88;;;140.52;;
22289;SDS011;11313;50.116;8.424;2023-05-02T09:51:38;85.07;;;79.65;;
22289;SDS011;11313;50.116;8.424;2023-05-02T09:54:04;50.42;;;46.88;;
22289;SDS011;11313;50.116;8.424;2023-05-02T09:56:30;67.22;;;63.00;;
22289;SDS011;11313;50.116;8.424;2023-05-02T09:59:11;215.77;;;203.07;;
22289;SDS011;11313;50.116;8.424;2023-05-02T10:01:38;178.70;;;168.00;;
22289;SDS011;11313;50.116;8.424;2023-05-02T10:04:06;82.40;;;77.32;;
22289;SDS011;11313;50.116;8.424;2023-05-02T10:06:40;81.55;;;76.68;;
22289;SDS011;11313;50.116;8.424;2023-05-02T10:09:09;104.25;;;97.93;;
22289;SDS011;11313;50.116;8.424;2023-05-02T10:11:43;118.90;;;111.90;;
22289;SDS011;11313;50.116;8.424;2023-05-02T10:14:09;77.63;;;72.85;;
22289;SDS011;11313;50.116;8.424;2023-05-02T10:16:37;207.80;;;195.45;;
22289;SDS011;11313;50.116;8.424;2023-05-02T10:19:11;92.20;;;86.63;;
22289;SDS011;11313;50.116;8.424;2023-05-02T10:21:41;104.88;;;98.22;;
22289;SDS011;11313;50.116;8.424;2023-05-02T10:24:07;91.72;;;86.18;;
22289;SDS011;11313;50.116;8.424;2023-05-02T10:26:33;61.33;;;57.47;;
22289;SDS011;11313;50.116;8.424;2023-05-02T10:29:00;98.20;;;92.25;;
22289;SDS011;11313;50.116;8.424;2023-05-02T10:31:25;91.88;;;86.38;;
22289;SDS011;11313;50.116;8.424;2023-05-02T10:33:56;93.78;;;88.28;;
22289;SDS011;11313;50.116;8.424;2023-05-02T10:36:24;60.67;;;57.00;;
22289;SDS011;11313;50.116;8.424;2023-05-02T10:38:51;86.30;;;81.25;;
22289;SDS011;11313;50.116;8.424;2023-05-02T10:41:19;84.15;;;79.03;;
22289;SDS011;11313;50.116;8.424;2023-05-02T10:43:48;132.13;;;124.15;;
22289;SDS011;11313;50.116;8.424;2023-05-02T10:49:07;80.63;;;75.72;;
22289;SDS011;11313;50.116;8.424;2023-05-02T10:51:33;55.78;;;52.15;;
22289;SDS011;11313;50.116;8.424;2023-05-02T11:01:46;53.95;;;50.72;;
22289;SDS011;11313;50.116;8.424;2023-05-02T11:04:11;65.90;;;62.05;;
22289;SDS011;11313;50.116;8.424;2023-05-02T11:11:47;66.45;;;62.35;;
22289;SDS011;11313;50.116;8.424;2023-05-02T11:19:25;50.33;;;47.33;;
22289;SDS011;11313;50.116;8.424;2023-05-02T11:24:39;52.35;;;49.05;;
22289;SDS011;11313;50.116;8.424;2023-05-02T11:32:20;58.83;;;55.10;;
22289;SDS011;11313;50.116;8.424;2023-05-02T11:34:46;56.40;;;52.88;;
22289;SDS011;11313;50.116;8.424;2023-05-02T11:37:14;64.45;;;60.58;;
22289;SDS011;11313;50.116;8.424;2023-05-02T11:39:40;85.47;;;80.25;;
22289;SDS011;11313;50.116;8.424;2023-05-02T11:42:06;78.30;;;73.53;;
22289;SDS011;11313;50.116;8.424;2023-05-02T11:44:32;79.90;;;75.28;;
22289;SDS011;11313;50.116;8.424;2023-05-02T11:46:57;85.47;;;80.10;;
22289;SDS011;11313;50.116;8.424;2023-05-02T11:49:24;82.72;;;77.78;;
22289;SDS011;11313;50.116;8.424;2023-05-02T11:51:50;299.95;;;282.00;;
22289;SDS011;11313;50.116;8.424;2023-05-02T11:54:19;241.05;;;226.65;;
22289;SDS011;11313;50.116;8.424;2023-05-02T11:56:46;320.07;;;300.83;;
22289;SDS011;11313;50.116;8.424;2023-05-02T11:59:12;374.55;;;351.20;;
22289;SDS011;11313;50.116;8.424;2023-05-02T12:01:47;444.77;;;417.13;;
22289;SDS011;11313;50.116;8.424;2023-05-02T12:04:14;347.50;;;326.00;;
22289;SDS011;11313;50.116;8.424;2023-05-02T12:06:43;416.90;;;390.85;;
22289;SDS011;11313;50.116;8.424;2023-05-02T12:09:18;390.85;;;367.08;;
22289;SDS011;11313;50.116;8.424;2023-05-02T12:11:50;390.02;;;366.20;;
22289;SDS011;11313;50.116;8.424;2023-05-02T12:14:25;395.85;;;370.85;;
22289;SDS011;11313;50.116;8.424;2023-05-02T12:16:54;386.42;;;362.67;;
22289;SDS011;11313;50.116;8.424;2023-05-02T12:19:22;360.40;;;337.75;;
22289;SDS011;11313;50.116;8.424;2023-05-02T12:21:48;409.30;;;384.05;;
22289;SDS011;11313;50.116;8.424;2023-05-02T12:24:14;393.00;;;368.63;;
22289;SDS011;11313;50.116;8.424;2023-05-02T12:26:40;424.00;;;398.00;;
22289;SDS011;11313;50.116;8.424;2023-05-02T12:29:05;445.02;;;417.73;;
22289;SDS011;11313;50.116;8.424;2023-05-02T12:31:32;454.73;;;426.17;;
22289;SDS011;11313;50.116;8.424;2023-05-02T12:33:58;493.92;;;463.02;;
22289;SDS011;11313;50.116;8.424;2023-05-02T12:36:25;455.90;;;427.85;;
22289;SDS011;11313;50.116;8.424;2023-05-02T12:38:55;440.05;;;412.88;;
22289;SDS011;11313;50.116;8.424;2023-05-02T12:41:56;473.17;;;443.38;;
22289;SDS011;11313;50.116;8.424;2023-05-02T12:44:15;504.10;;;470.85;;
22289;SDS011;11313;50.116;8.424;2023-05-02T12:46:58;419.77;;;393.13;;
22289;SDS011;11313;50.116;8.424;2023-05-02T12:49:24;450.50;;;421.17;;
22289;SDS011;11313;50.116;8.424;2023-05-02T12:51:53;512.65;;;478.75;;
22289;SDS011;11313;50.116;8.424;2023-05-02T12:54:21;517.05;;;482.65;;
22289;SDS011;11313;50.116;8.424;2023-05-02T12:56:47;519.25;;;484.77;;
22289;SDS011;11313;50.116;8.424;2023-05-02T12:59:28;555.85;;;518.33;;
22289;SDS011;11313;50.116;8.424;2023-05-02T13:01:55;530.80;;;495.42;;
22289;SDS011;11313;50.116;8.424;2023-05-02T13:04:21;483.35;;;451.52;;
22289;SDS011;11313;50.116;8.424;2023-05-02T13:06:57;486.80;;;455.38;;
22289;SDS011;11313;50.116;8.424;2023-05-02T13:09:22;569.03;;;531.17;;
22289;SDS011;11313;50.116;8.424;2023-05-02T13:11:48;538.00;;;502.65;;
22289;SDS011;11313;50.116;8.424;2023-05-02T13:14:14;513.25;;;480.55;;
22289;SDS011;11313;50.116;8.424;2023-05-02T13:16:39;556.45;;;519.70;;
22289;SDS011;11313;50.116;8.424;2023-05-02T13:19:05;554.97;;;517.10;;
22289;SDS011;11313;50.116;8.424;2023-05-02T13:21:30;550.78;;;514.78;;
22289;SDS011;11313;50.116;8.424;2023-05-02T13:23:56;583.92;;;543.90;;
22289;SDS011;11313;50.116;8.424;2023-05-02T13:26:22;606.38;;;564.85;;
22289;SDS011;11313;50.116;8.424;2023-05-02T13:28:48;607.75;;;566.42;;
22289;SDS011;11313;50.116;8.424;2023-05-02T13:31:13;580.80;;;541.67;;
22289;SDS011;11313;50.116;8.424;2023-05-02T13:33:39;594.60;;;554.53;;
22289;SDS011;11313;50.116;8.424;2023-05-02T13:36:05;452.55;;;423.08;;
22289;SDS011;11313;50.116;8.424;2023-05-02T13:38:30;575.92;;;536.25;;
22289;SDS011;11313;50.116;8.424;2023-05-02T13:40:56;603.75;;;562.83;;
22289;SDS011;11313;50.116;8.424;2023-05-02T13:43:22;626.40;;;583.58;;
22289;SDS011;11313;50.116;8.424;2023-05-02T13:45:48;579.90;;;541.35;;
22289;SDS011;11313;50.116;8.424;2023-05-02T13:48:13;572.42;;;534.45;;
22289;SDS011;11313;50.116;8.424;2023-05-02T13:50:39;574.35;;;535.58;;
22289;SDS011;11313;50.116;8.424;2023-05-02T13:53:05;566.05;;;528.92;;
22289;SDS011;11313;50.116;8.424;2023-05-02T13:55:30;542.20;;;506.02;;
22289;SDS011;11313;50.116;8.424;2023-05-02T13:57:56;568.13;;;529.72;;
22289;SDS011;11313;50.116;8.424;2023-05-02T14:00:21;536.33;;;500.55;;
22289;SDS011;11313;50.116;8.424;2023-05-02T14:02:47;552.92;;;516.85;;
22289;SDS011;11313;50.116;8.424;2023-05-02T14:05:13;558.38;;;521.22;;
22289;SDS011;11313;50.116;8.424;2023-05-02T14:07:38;501.23;;;468.52;;
22289;SDS011;11313;50.116;8.424;2023-05-02T14:10:04;454.13;;;424.48;;
22289;SDS011;11313;50.116;8.424;2023-05-02T14:12:30;519.42;;;485.08;;
22289;SDS011;11313;50.116;8.424;2023-05-02T14:14:56;526.42;;;492.05;;
22289;SDS011;11313;50.116;8.424;2023-05-02T14:17:21;523.22;;;489.10;;
22289;SDS011;11313;50.116;8.424;2023-05-02T14:19:49;491.13;;;459.08;;
22289;SDS011;11313;50.116;8.424;2023-05-02T14:22:15;406.08;;;380.17;;
22289;SDS011;11313;50.116;8.424;2023-05-02T14:24:41;329.20;;;309.15;;
22289;SDS011;11313;50.116;8.424;2023-05-02T14:27:06;451.67;;;422.40;;
22289;SDS011;11313;50.116;8.424;2023-05-02T14:29:36;575.70;;;536.60;;
22289;SDS011;11313;50.116;8.424;2023-05-02T14:32:05;592.17;;;551.25;;
22289;SDS011;11313;50.116;8.424;2023-05-02T14:34:31;585.75;;;545.30;;
22289;SDS011;11313;50.116;8.424;2023-05-02T14:36:56;499.20;;;466.30;;
22289;SDS011;11313;50.116;8.424;2023-05-02T14:39:22;399.05;;;373.63;;
22289;SDS011;11313;50.116;8.424;2023-05-02T14:41:47;451.60;;;423.05;;
22289;SDS011;11313;50.116;8.424;2023-05-02T14:44:13;494.77;;;462.42;;
22289;SDS011;11313;50.116;8.424;2023-05-02T14:46:38;518.08;;;484.13;;
22289;SDS011;11313;50.116;8.424;2023-05-02T14:49:04;518.10;;;483.60;;
22289;SDS011;11313;50.116;8.424;2023-05-02T14:51:29;585.22;;;545.60;;